Latest Weather Observations for PORTABLE BTSE (DFES)

IDW60801

Issued at 9:23 am WST Tuesday 16 August 2022 (issued every 10 minutes, with the page automatically refreshed every 10 minutes)

About weather observations | Map of weather stations | Latest weather observations for WA | Other Formats
Station Details ID: 250120 Name: DFES PORTABLE AWS E Lat: -16.42 Lon: 126.44 Height: 10.0 m

Portable automatic weather stations (PAWS) are operated by other organisations, such as Fire and Emergency Services, and are included here by agreement. Portable stations may be deployed to a location for a short period and their location may be subject to change without notice. Wind observations from these stations are provided from heights of either three (3) or ten (10) metres above ground level (AGL).

Data from the previous 72 hours. | See also: Recent months for locations in Western Australia
Date/Time
WST
Temp
°C
App
Temp
°C
Dew
Point
°C
Rel
Hum
%
Delta-T
°C
Wind Press
QNH
hPa
Press
MSL
hPa
Rain since
9am
mm
Dir  Spd
km/h
Gust
km/h
Spd
kts
Gust
kts
16/09:10am 26.1 17.2 -7.6 10 13.6 E 32 37 17 20 - - 0.0
16/09:00am 25.9 16.4 -7.0 11 13.4 ENE 35 44 19 24 - - 0.0
16/08:50am 25.7 16.6 -7.3 11 13.3 ENE 33 43 18 23 - - 0.0
16/08:40am 25.3 16.8 -7.1 11 13.1 E 30 39 16 21 - - 0.0
16/08:30am 24.8 15.7 -7.1 11 12.8 ENE 33 44 18 24 - - 0.0
16/08:20am 24.6 15.7 -6.8 12 12.7 E 32 41 17 22 - - 0.0
16/08:10am 24.3 16.6 -6.8 12 12.5 E 26 32 14 17 - - 0.0
16/08:00am 24.0 17.0 -6.7 12 12.3 E 22 30 12 16 - - 0.0
16/07:50am 23.3 17.4 -6.0 13 11.8 E 17 24 9 13 - - 0.0
16/07:40am 22.2 16.3 -6.0 14 11.3 E 17 22 9 12 - - 0.0
16/07:30am 19.4 16.2 -3.2 21 9.3 NNW 4 11 2 6 - - 0.0
16/07:20am 16.9 14.2 0.1 32 7.2 WNW 4 6 2 3 - - 0.0
16/07:10am 14.8 12.5 0.7 38 6.0 NNW 2 4 1 2 - - 0.0
16/07:00am 12.9 10.7 1.3 45 4.9 NE 2 2 1 1 - - 0.0
16/06:50am 11.0 9.2 1.2 51 4.1 CALM 0 2 0 1 - - 0.0
16/06:40am 9.4 7.2 1.3 57 3.3 E 2 6 1 3 - - 0.0
16/06:30am 7.9 5.7 1.1 62 2.7 ENE 2 4 1 2 - - 0.0
16/06:20am 6.5 4.7 0.9 67 2.2 CALM 0 0 0 0 - - 0.0
16/05:20am 5.2 3.2 0.2 70 1.9 CALM 0 0 0 0 - - 0.0
16/05:10am 5.3 3.3 0.0 68 2.0 CALM 0 4 0 2 - - 0.0
16/05:00am 5.2 2.8 0.0 69 2.0 ENE 2 6 1 3 - - 0.0
16/04:50am 5.3 3.0 0.5 71 1.9 ESE 2 4 1 2 - - 0.0
16/04:40am 5.7 3.4 0.6 70 2.0 SE 2 6 1 3 - - 0.0
16/04:00am 6.0 3.7 0.2 66 2.2 ENE 2 4 1 2 - - 0.0
16/03:30am 6.3 4.3 0.2 65 2.4 CALM 0 2 0 1 - - 0.0
16/03:20am 6.4 4.4 0.2 64 2.4 CALM 0 0 0 0 - - 0.0
16/03:10am 6.4 4.4 0.2 64 2.4 CALM 0 0 0 0 - - 0.0
16/03:00am 6.5 4.6 0.3 64 2.4 CALM 0 0 0 0 - - 0.0
16/02:40am 6.9 4.9 0.1 62 2.6 CALM 0 0 0 0 - - 0.0
16/02:20am 7.5 5.5 -0.1 58 3.0 CALM 0 0 0 0 - - 0.0
16/02:10am 7.7 5.3 -0.2 57 3.1 NE 2 6 1 3 - - 0.0
16/02:00am 7.7 5.7 -0.4 56 3.1 CALM 0 2 0 1 - - 0.0
16/01:50am 7.8 5.8 -0.2 57 3.1 CALM 0 4 0 2 - - 0.0
16/01:30am 8.3 5.5 -0.6 53 3.5 ENE 4 9 2 5 - - 0.0
16/01:20am 8.3 5.1 -0.8 52 3.5 ENE 6 9 3 5 - - 0.0
16/01:00am 8.3 5.4 -1.0 52 3.6 E 4 6 2 3 - - 0.0
16/12:50am 8.3 5.7 -1.5 50 3.7 E 2 6 1 3 - - 0.0
16/12:40am 8.4 5.5 -1.0 51 3.6 ENE 4 7 2 4 - - 0.0
16/12:30am 8.6 6.1 -1.1 50 3.7 E 2 4 1 2 - - 0.0
16/12:20am 8.6 6.4 -1.4 49 3.8 CALM 0 6 0 3 - - 0.0
16/12:10am 8.8 6.7 -0.7 51 3.7 CALM 0 4 0 2 - - 0.0
16/12:00am 9.0 6.6 -0.4 52 3.7 ESE 2 4 1 2 - - 0.0
 
Date/Time
WST
Temp
°C
App
Temp
°C
Dew
Point
°C
Rel
Hum
%
Delta-T
°C
Wind Press
QNH
hPa
Press
MSL
hPa
Rain since
9am
mm
Dir  Spd
km/h
Gust
km/h
Spd
kts
Gust
kts
15/11:50pm 9.5 6.7 -0.4 50 3.9 E 4 6 2 3 - - 0.0
15/11:30pm 10.1 6.8 -0.9 46 4.3 ENE 6 7 3 4 - - 0.0
15/11:20pm 10.2 8.2 0.1 49 4.1 CALM 0 4 0 2 - - 0.0
15/11:10pm 10.7 7.5 -0.3 46 4.4 ENE 6 7 3 4 - - 0.0
15/11:00pm 10.7 8.3 -0.2 47 4.4 NE 2 6 1 3 - - 0.0
15/10:50pm 10.8 8.7 -0.7 45 4.6 CALM 0 0 0 0 - - 0.0
15/10:40pm 10.8 8.7 -0.9 44 4.6 CALM 0 0 0 0 - - 0.0
15/10:30pm 10.9 8.8 -0.7 44 4.6 CALM 0 2 0 1 - - 0.0
15/10:20pm 11.0 8.9 -0.7 44 4.7 CALM 0 0 0 0 - - 0.0
15/10:10pm 11.3 9.2 -0.7 43 4.8 CALM 0 0 0 0 - - 0.0
15/09:50pm 11.5 9.4 -0.9 42 5.0 CALM 0 2 0 1 - - 0.0
15/09:40pm 11.6 9.1 -0.7 42 4.9 NE 2 4 1 2 - - 0.0
15/09:30pm 11.9 9.9 -0.4 42 5.0 CALM 0 0 0 0 - - 0.0
15/09:20pm 12.3 9.5 -0.7 40 5.3 NE 4 6 2 3 - - 0.0
15/09:10pm 12.4 9.9 -0.9 40 5.4 NE 2 6 1 3 - - 0.0
15/08:40pm 13.1 10.6 -0.8 38 5.7 NE 2 6 1 3 - - 0.0
15/08:30pm 13.2 10.4 -0.7 38 5.7 N 4 7 2 4 - - 0.0
15/08:10pm 13.7 11.7 -0.1 38 5.7 CALM 0 2 0 1 - - 0.0
15/07:50pm 14.0 11.3 0.3 39 5.8 WNW 4 6 2 3 - - 0.0
15/07:40pm 14.5 12.2 0.5 38 5.9 WNW 2 6 1 3 - - 0.0
15/07:30pm 15.2 12.7 -1.0 33 6.7 N 2 6 1 3 - - 0.0
15/07:20pm 15.6 12.2 -1.8 30 7.1 NE 6 7 3 4 - - 0.0
15/07:10pm 16.0 12.6 -2.3 28 7.4 NE 6 7 3 4 - - 0.0
15/07:00pm 16.4 12.8 -2.2 28 7.6 NE 7 9 4 5 - - 0.0
15/06:50pm 16.9 13.3 -2.1 27 7.8 ENE 7 11 4 6 - - 0.0
15/06:40pm 17.3 13.7 -2.2 26 8.0 ENE 7 11 4 6 - - 0.0
15/06:30pm 18.0 15.4 -2.0 25 8.3 ENE 2 4 1 2 - - 0.0
15/06:20pm 19.2 15.7 -3.2 21 9.2 E 6 7 3 4 - - 0.0
15/06:10pm 20.2 16.6 -3.3 20 9.7 ENE 6 9 3 5 - - 0.0
15/06:00pm 21.5 17.8 -4.4 17 10.6 E 6 7 3 4 - - 0.0
15/05:50pm 23.1 19.8 -4.2 16 11.4 E 4 7 2 4 - - 0.0
15/05:40pm 24.8 22.0 -6.8 12 12.8 CALM 0 4 0 2 - - 0.0
15/05:30pm 26.3 23.1 -7.3 10 13.7 ESE 2 4 1 2 - - 0.0
15/05:20pm 27.8 23.8 -7.7 9 14.5 SE 6 7 3 4 - - 0.0
15/05:10pm 29.0 24.8 -8.3 8 15.3 SE 7 9 4 5 - - 0.0
15/05:00pm 29.9 25.6 -8.7 7 15.8 SE 7 13 4 7 - - 0.0
15/04:50pm 30.7 26.6 -9.4 7 16.4 SE 6 7 3 4 - - 0.0
15/04:40pm 30.8 26.1 -9.0 7 16.4 ESE 9 13 5 7 - - 0.0
15/04:30pm 31.1 25.9 -10.1 6 16.7 SE 11 17 6 9 - - 0.0
15/04:20pm 31.3 26.1 -10.7 6 16.9 SSE 11 19 6 10 - - 0.0
15/04:10pm 31.4 25.8 -10.7 6 16.9 ESE 13 19 7 10 - - 0.0
15/04:00pm 31.8 26.3 -10.1 6 17.1 SE 13 17 7 9 - - 0.0
15/03:50pm 32.1 27.0 -9.6 6 17.2 SE 11 17 6 9 - - 0.0
15/03:40pm 32.2 27.1 -9.7 6 17.2 SSE 11 17 6 9 - - 0.0
15/03:30pm 32.1 26.2 -10.5 6 17.3 E 15 17 8 9 - - 0.0
15/03:20pm 32.5 27.0 -10.1 6 17.5 SSE 13 17 7 9 - - 0.0
15/03:10pm 32.6 26.7 -10.2 6 17.5 SSE 15 22 8 12 - - 0.0
15/03:00pm 32.9 27.5 -8.6 6 17.5 SE 13 17 7 9 - - 0.0
15/02:50pm 32.9 27.7 -10.3 5 17.7 SE 11 22 6 12 - - 0.0
15/02:40pm 32.3 26.1 -9.4 6 17.3 ESE 17 26 9 14 - - 0.0
15/02:30pm 32.6 26.4 -9.2 6 17.4 ESE 17 26 9 14 - - 0.0
15/02:20pm 32.3 27.6 -8.8 6 17.2 E 9 15 5 8 - - 0.0
15/02:10pm 32.2 25.6 -9.1 6 17.2 SE 19 24 10 13 - - 0.0
15/02:00pm 32.7 26.8 -9.3 6 17.5 SE 15 22 8 12 - - 0.0
15/01:50pm 32.6 26.8 -8.8 6 17.4 SSE 15 22 8 12 - - 0.0
15/01:40pm 32.6 26.8 -8.1 7 17.3 SSE 15 20 8 11 - - 0.0
15/01:30pm 32.6 26.8 -8.8 6 17.4 ESE 15 20 8 11 - - 0.0
15/01:20pm 32.5 26.7 -8.5 6 17.3 SSE 15 20 8 11 - - 0.0
15/01:10pm 32.0 25.5 -7.7 7 16.9 S 19 24 10 13 - - 0.0
15/01:00pm 32.1 25.6 -8.3 7 17.0 SSE 19 26 10 14 - - 0.0
15/12:50pm 31.7 25.2 -7.5 7 16.7 SSE 19 24 10 13 - - 0.0
15/12:40pm 31.7 25.1 -6.7 8 16.6 SE 20 28 11 15 - - 0.0
15/12:30pm 31.7 25.3 -6.5 8 16.5 SSE 19 28 10 15 - - 0.0
15/12:20pm 31.5 25.6 -5.9 8 16.3 SE 17 24 9 13 - - 0.0
15/12:10pm 31.3 25.0 -6.1 8 16.2 SSE 19 26 10 14 - - 0.0
15/12:00pm 31.2 24.8 -5.0 9 16.0 SSE 20 26 11 14 - - 0.0
15/11:50am 31.2 24.9 -5.6 9 16.1 SE 19 24 10 13 - - 0.0
15/11:40am 30.5 24.2 -4.2 10 15.5 SSE 20 24 11 13 - - 0.0
15/11:30am 30.7 24.5 -4.4 10 15.6 S 19 28 10 15 - - 0.0
15/11:20am 30.7 25.0 -4.1 10 15.6 SE 17 24 9 13 - - 0.0
15/11:10am 30.5 24.5 -2.9 11 15.2 SSE 19 20 10 11 - - 0.0
15/11:00am 30.4 25.2 -3.0 11 15.2 SE 15 19 8 10 - - 0.0
15/10:50am 30.3 24.7 -3.2 11 15.2 SE 17 20 9 11 - - 0.0
15/10:40am 30.3 25.0 -3.8 10 15.3 S 15 19 8 10 - - 0.0
15/10:30am 29.8 24.1 -3.7 11 15.0 ESE 17 20 9 11 - - 0.0
15/10:20am 29.5 23.8 -4.0 11 14.9 SE 17 22 9 12 - - 0.0
15/10:10am 29.4 24.0 -4.6 10 14.9 ESE 15 19 8 10 - - 0.0
15/10:00am 29.3 24.5 -2.7 12 14.5 SSE 13 19 7 10 - - 0.0
15/09:50am 29.1 23.9 -2.4 12 14.3 ESE 15 19 8 10 - - 0.0
15/09:40am 28.6 23.1 -2.2 13 14.0 ESE 17 22 9 12 - - 0.0
15/09:30am 27.9 21.7 -2.8 13 13.7 E 20 26 11 14 - - 0.0
15/09:20am 27.6 21.6 -2.9 13 13.6 E 19 26 10 14 - - 0.0
15/09:10am 27.4 21.3 -2.7 14 13.4 E 20 28 11 15 - - 0.0
15/09:00am 27.0 20.0 -3.3 13 13.3 E 24 32 13 17 - - 0.0
15/08:50am 27.1 21.8 -3.2 13 13.4 ESE 15 20 8 11 - - 0.0
15/08:40am 26.4 20.8 -3.0 14 12.9 SE 17 22 9 12 - - 0.0
15/08:30am 25.8 20.2 -2.7 15 12.5 SE 17 24 9 13 - - 0.0
15/08:20am 25.6 20.0 -2.6 15 12.4 ESE 17 22 9 12 - - 0.0
15/08:10am 25.0 19.0 -2.7 16 12.1 SE 19 24 10 13 - - 0.0
15/08:00am 25.0 19.8 -2.8 15 12.1 SE 15 22 8 12 - - 0.0
15/07:50am 24.6 20.8 -1.0 18 11.5 ESE 9 15 5 8 - - 0.0
15/07:40am 23.4 19.6 -0.4 20 10.7 ESE 9 11 5 6 - - 0.0
15/07:30am 21.6 18.5 0.3 24 9.6 - 6 15 3 8 - - 0.0
15/07:20am 19.3 16.7 3.3 34 7.5 W 6 7 3 4 - - 0.0
15/07:10am 17.6 15.0 3.3 38 6.6 WNW 6 7 3 4 - - 0.0
15/07:00am 15.6 13.5 4.1 46 5.3 NNW 4 6 2 3 - - 0.0
15/06:50am 13.5 12.5 5.8 59 3.6 CALM 0 0 0 0 - - 0.0
15/06:40am 11.8 10.9 6.0 67 2.7 CALM 0 2 0 1 - - 0.0
15/06:30am 10.5 9.5 5.7 72 2.2 CALM 0 4 0 2 - - 0.0
15/06:20am 9.5 8.1 5.4 75 1.9 NW 2 4 1 2 - - 0.0
15/06:10am 8.9 7.7 4.7 75 1.9 CALM 0 0 0 0 - - 0.0
15/06:00am 8.6 7.5 4.9 77 1.6 CALM 0 0 0 0 - - 0.0
15/05:50am 8.5 7.4 4.9 78 1.6 CALM 0 4 0 2 - - 0.0
15/05:40am 8.7 6.4 4.9 77 1.7 W 6 7 3 4 - - 0.0
15/05:30am 8.9 7.7 4.8 75 1.8 CALM 0 4 0 2 - - 0.0
15/05:20am 9.0 7.8 4.6 74 1.9 CALM 0 0 0 0 - - 0.0
15/05:10am 9.2 8.1 4.9 74 1.9 CALM 0 2 0 1 - - 0.0
15/05:00am 9.3 7.8 5.0 74 1.9 W 2 4 1 2 - - 0.0
15/04:50am 9.3 8.2 5.0 74 1.9 CALM 0 0 0 0 - - 0.0
15/04:40am 9.2 8.1 5.0 75 1.9 CALM 0 4 0 2 - - 0.0
15/04:30am 9.0 7.9 5.1 76 1.7 CALM 0 4 0 2 - - 0.0
15/04:20am 8.9 7.4 5.2 77 1.7 NW 2 4 1 2 - - 0.0
15/04:10am 9.0 7.2 5.2 77 1.7 NW 4 6 2 3 - - 0.0
15/04:00am 9.2 8.0 4.6 73 2.0 CALM 0 4 0 2 - - 0.0
15/03:50am 9.3 8.1 4.5 72 2.1 CALM 0 0 0 0 - - 0.0
15/03:40am 9.3 8.1 4.6 72 2.1 CALM 0 0 0 0 - - 0.0
15/03:30am 9.3 8.1 4.5 72 2.1 CALM 0 0 0 0 - - 0.0
15/03:20am 9.2 8.0 4.6 73 2.0 CALM 0 0 0 0 - - 0.0
15/03:10am 9.2 8.0 4.8 74 2.0 CALM 0 0 0 0 - - 0.0
15/03:00am 9.4 8.2 4.8 73 2.1 CALM 0 0 0 0 - - 0.0
15/02:50am 9.6 8.5 5.0 73 2.1 CALM 0 0 0 0 - - 0.0
15/02:40am 9.9 8.8 4.9 71 2.2 CALM 0 0 0 0 - - 0.0
15/02:30am 10.1 9.0 4.9 70 2.3 CALM 0 0 0 0 - - 0.0
15/02:20am 10.2 9.1 4.9 69 2.4 CALM 0 0 0 0 - - 0.0
15/02:10am 10.2 8.6 4.7 68 2.5 NE 2 6 1 3 - - 0.0
15/02:00am 10.1 8.9 4.8 69 2.4 CALM 0 0 0 0 - - 0.0
15/01:50am 10.3 9.2 4.9 69 2.4 CALM 0 0 0 0 - - 0.0
15/01:40am 10.4 8.9 4.8 68 2.5 NE 2 4 1 2 - - 0.0
15/01:30am 10.3 9.1 4.7 68 2.5 CALM 0 4 0 2 - - 0.0
15/01:20am 10.2 9.0 4.8 69 2.4 CALM 0 6 0 3 - - 0.0
15/01:10am 10.2 9.1 5.1 70 2.3 CALM 0 0 0 0 - - 0.0
15/01:00am 10.5 9.4 5.2 70 2.4 CALM 0 0 0 0 - - 0.0
15/12:50am 10.8 9.7 5.3 69 2.5 CALM 0 0 0 0 - - 0.0
15/12:40am 11.1 10.0 5.1 66 2.7 CALM 0 0 0 0 - - 0.0
15/12:30am 11.2 10.1 5.0 65 2.8 CALM 0 2 0 1 - - 0.0
15/12:20am 11.3 10.2 5.0 65 2.9 CALM 0 2 0 1 - - 0.0
15/12:10am 11.5 10.4 5.0 64 3.0 CALM 0 4 0 2 - - 0.0
15/12:00am 11.5 10.4 5.0 64 3.0 CALM 0 0 0 0 - - 0.0
 
Date/Time
WST
Temp
°C
App
Temp
°C
Dew
Point
°C
Rel
Hum
%
Delta-T
°C
Wind Press
QNH
hPa
Press
MSL
hPa
Rain since
9am
mm
Dir  Spd
km/h
Gust
km/h
Spd
kts
Gust
kts
14/11:50pm 11.7 10.6 5.1 64 3.0 CALM 0 0 0 0 - - 0.0
14/11:40pm 11.9 10.8 5.0 62 3.2 CALM 0 0 0 0 - - 0.0
14/11:30pm 12.0 10.9 5.1 62 3.2 CALM 0 0 0 0 - - 0.0
14/11:20pm 12.2 11.1 5.1 62 3.3 CALM 0 4 0 2 - - 0.0
14/11:10pm 12.4 11.3 5.0 60 3.4 CALM 0 0 0 0 - - 0.0
14/11:00pm 12.6 11.5 5.1 60 3.5 CALM 0 0 0 0 - - 0.0
14/10:50pm 12.8 11.3 5.0 59 3.6 E 2 4 1 2 - - 0.0
14/10:40pm 12.8 11.7 5.1 59 3.6 CALM 0 0 0 0 - - 0.0
14/10:30pm 13.1 12.0 5.2 58 3.7 CALM 0 0 0 0 - - 0.0
14/10:20pm 13.4 12.3 5.3 58 3.8 CALM 0 0 0 0 - - 0.0
14/10:10pm 13.8 12.8 5.4 57 3.9 CALM 0 0 0 0 - - 0.0
14/10:00pm 14.4 13.3 5.3 54 4.3 CALM 0 0 0 0 - - 0.0
14/09:50pm 14.7 13.2 5.0 52 4.5 ENE 2 6 1 3 - - 0.0
14/09:40pm 14.8 13.3 5.1 52 4.6 NNE 2 7 1 4 - - 0.0
14/09:30pm 15.0 13.9 5.2 52 4.6 CALM 0 4 0 2 - - 0.0
14/09:20pm 15.5 13.6 5.1 50 4.9 ENE 4 7 2 4 - - 0.0
14/09:10pm 15.8 14.7 5.2 49 5.0 CALM 0 0 0 0 - - 0.0
14/09:00pm 16.2 15.1 5.0 47 5.3 CALM 0 0 0 0 - - 0.0
14/08:50pm 16.4 15.3 4.9 46 5.5 CALM 0 0 0 0 - - 0.0
14/08:40pm 16.8 15.8 5.4 47 5.5 CALM 0 0 0 0 - - 0.0
14/08:30pm 17.2 15.7 4.9 44 5.9 W 2 7 1 4 - - 0.0
14/08:20pm 17.9 16.5 5.3 43 6.1 NNW 2 7 1 4 - - 0.0
14/08:10pm 18.5 15.6 4.4 39 6.7 ENE 9 19 5 10 - - 0.0
14/08:00pm 19.2 17.2 4.6 38 7.0 ENE 4 7 2 4 - - 0.0
14/07:50pm 19.9 17.9 4.6 36 7.4 NE 4 6 2 3 - - 0.0
14/07:40pm 20.6 18.5 4.0 33 8.0 NE 4 7 2 4 - - 0.0
14/07:30pm 21.9 20.5 3.5 30 8.8 CALM 0 0 0 0 - - 0.0
14/07:20pm 22.6 21.2 3.3 28 9.3 CALM 0 0 0 0 - - 0.0
14/07:10pm 23.3 21.0 2.9 26 9.8 E 4 6 2 3 - - 0.0
14/07:00pm 23.8 21.2 3.0 25 10.0 SE 6 6 3 3 - - 0.0
14/06:50pm 24.1 21.4 2.9 25 10.2 SSE 6 7 3 4 - - 0.0
14/06:40pm 24.4 21.7 2.9 24 10.4 SE 6 9 3 5 - - 0.0
14/06:30pm 24.9 22.3 3.3 24 10.6 SSE 6 7 3 4 - - 0.0
14/06:20pm 25.6 23.0 3.1 23 11.0 SSE 6 7 3 4 - - 0.0
14/06:10pm 26.3 23.5 3.0 22 11.4 SSE 7 11 4 6 - - 0.0
14/06:00pm 26.7 23.5 2.9 21 11.7 SSE 9 11 5 6 - - 0.0
14/05:50pm 27.2 24.0 2.9 21 12.0 SSE 9 13 5 7 - - 0.0
14/05:40pm 27.5 24.3 2.8 20 12.2 SSE 9 13 5 7 - - 0.0
14/05:30pm 28.2 24.6 3.0 20 12.5 SSE 11 15 6 8 - - 0.0
14/05:20pm 29.1 25.5 3.0 19 13.0 SSE 11 15 6 8 - - 0.0
14/05:10pm 29.8 25.8 2.9 18 13.5 SSE 13 19 7 10 - - 0.0
14/05:00pm 30.5 26.9 2.8 17 13.9 S 11 15 6 8 - - 0.0
14/04:50pm 31.0 27.3 2.4 16 14.3 S 11 15 6 8 - - 0.0
14/04:40pm 31.4 27.7 2.5 16 14.5 S 11 22 6 12 - - 0.0
14/04:30pm 31.6 27.1 2.4 15 14.7 SSE 15 20 8 11 - - 0.0
14/04:20pm 32.2 28.1 2.4 15 15.0 SSE 13 17 7 9 - - 0.0
14/04:10pm 32.3 28.2 2.1 14 15.2 S 13 17 7 9 - - 0.0
14/04:00pm 32.4 28.0 2.5 15 15.1 S 15 17 8 9 - - 0.0
14/03:50pm 32.5 28.4 2.4 15 15.2 SSW 13 17 7 9 - - 0.0
14/03:40pm 32.6 28.1 2.2 14 15.3 S 15 19 8 10 - - 0.0
14/03:30pm 32.8 28.3 2.1 14 15.5 SE 15 22 8 12 - - 0.0
14/03:20pm 32.7 28.6 2.4 14 15.3 SSE 13 17 7 9 - - 0.0
14/03:10pm 32.7 27.8 2.2 14 15.4 SE 17 20 9 11 - - 0.0
14/03:00pm 33.0 28.6 2.5 14 15.5 SE 15 20 8 11 - - 0.0
14/02:50pm 33.0 28.2 2.5 14 15.5 ESE 17 20 9 11 - - 0.0
14/02:40pm 33.0 29.0 2.9 15 15.4 SSW 13 19 7 10 - - 0.0
14/02:30pm 32.9 28.6 3.0 15 15.3 SSE 15 17 8 9 - - 0.0
14/02:20pm 33.1 28.8 3.0 15 15.4 SE 15 22 8 12 - - 0.0
14/02:10pm 33.1 29.7 3.9 16 15.2 SE 11 19 6 10 - - 0.0
14/02:00pm 33.2 28.6 3.6 15 15.3 SE 17 20 9 11 - - 0.0
14/01:50pm 33.1 28.9 3.7 15 15.2 SE 15 19 8 10 - - 0.0
14/01:40pm 32.7 28.8 3.6 16 15.0 SSE 13 22 7 12 - - 0.0
14/01:30pm 32.6 28.1 4.2 16 14.8 ESE 17 22 9 12 - - 0.0
14/01:20pm 32.3 27.5 4.6 17 14.5 S 19 26 10 14 - - 0.0
14/01:10pm 32.5 28.0 4.2 17 14.7 E 17 28 9 15 - - 0.0
14/01:00pm 32.2 28.1 4.4 17 14.5 SSW 15 20 8 11 - - 0.0
14/12:50pm 32.4 28.6 3.9 16 14.8 S 13 24 7 13 - - 0.0
14/12:40pm 32.5 29.2 4.6 17 14.6 ESE 11 15 6 8 - - 0.0
14/12:30pm 32.2 28.1 4.2 17 14.6 ESE 15 22 8 12 - - 0.0
14/12:20pm 32.0 27.1 4.3 17 14.4 ENE 19 30 10 16 - - 0.0
14/12:10pm 32.0 28.8 5.0 18 14.2 E 11 20 6 11 - - 0.0
14/12:00pm 31.5 27.5 4.8 18 14.0 SE 15 20 8 11 - - 0.0
14/11:50am 31.1 27.6 5.3 19 13.6 SSE 13 26 7 14 - - 0.0
14/11:40am 31.1 26.8 5.2 19 13.6 ENE 17 26 9 14 - - 0.0
14/11:30am 30.6 24.8 4.6 19 13.5 NE 24 35 13 19 - - 0.0
14/11:20am 30.5 24.9 5.6 20 13.1 ENE 24 33 13 18 - - 0.0
14/11:10am 30.8 25.9 5.3 20 13.4 NE 20 28 11 15 - - 0.0
14/11:00am 30.4 25.2 5.7 21 13.0 ENE 22 32 12 17 - - 0.0
14/10:50am 30.1 25.6 5.9 21 12.8 NE 19 32 10 17 - - 0.0
14/10:40am 30.2 25.4 5.7 21 12.9 E 20 35 11 19 - - 0.0
14/10:30am 29.9 24.8 6.0 22 12.6 NE 22 26 12 14 - - 0.0
14/10:20am 29.8 25.0 5.5 21 12.7 ENE 20 28 11 15 - - 0.0
14/10:10am 29.4 23.9 5.8 22 12.4 ENE 24 32 13 17 - - 0.0
14/10:00am 29.3 23.8 5.9 22 12.3 E 24 35 13 19 - - 0.0
14/09:50am 29.1 23.6 5.8 23 12.2 ENE 24 30 13 16 - - 0.0
14/09:40am 28.9 23.8 6.2 23 12.0 E 22 30 12 16 - - 0.0
14/09:30am 28.4 22.1 5.7 23 11.8 NE 28 33 15 18 - - 0.0
14/09:20am 28.3 21.6 5.8 24 11.7 NE 30 33 16 18 - - 0.0
14/09:10am 28.0 20.9 5.7 24 11.6 ENE 32 37 17 20 - - 0.0
14/09:00am 28.0 22.1 5.8 24 11.6 ENE 26 33 14 18 - - 0.0
14/08:50am 27.7 22.2 5.9 25 11.4 ENE 24 32 13 17 - - 0.0
14/08:40am 27.6 21.4 6.1 25 11.2 ENE 28 37 15 20 - - 0.0
14/08:30am 27.5 22.8 6.1 25 11.2 ENE 20 28 11 15 - - 0.0
14/08:20am 27.2 22.1 6.0 26 11.0 ENE 22 28 12 15 - - 0.0
14/08:10am 26.7 23.4 6.4 27 10.6 E 13 17 7 9 - - 0.0
14/08:00am 25.6 23.3 7.5 31 9.6 ENE 9 15 5 8 - - 0.0
14/07:50am 24.4 22.5 7.4 33 8.9 NE 7 9 4 5 - - 0.0
14/07:40am 23.5 22.7 8.3 37 8.1 N 2 4 1 2 - - 0.0
14/07:30am 22.2 21.8 8.2 40 7.4 CALM 0 2 0 1 - - 0.0
14/07:20am 20.2 20.0 9.1 49 5.9 CALM 0 2 0 1 - - 0.0
14/07:10am 18.4 18.2 9.1 54 4.9 CALM 0 2 0 1 - - 0.0
14/07:00am 16.8 16.1 8.6 58 4.2 ENE 2 6 1 3 - - 0.0
14/06:50am 15.1 14.8 8.7 65 3.2 CALM 0 0 0 0 - - 0.0
14/06:40am 13.6 13.4 9.2 75 2.2 CALM 0 4 0 2 - - 0.0
14/06:30am 12.6 12.2 8.3 75 2.1 CALM 0 4 0 2 - - 0.0
14/06:20am 11.5 11.1 8.3 81 1.6 CALM 0 2 0 1 - - 0.0
14/06:10am 11.0 10.6 8.1 82 1.4 CALM 0 0 0 0 - - 0.0
14/06:00am 10.8 10.4 8.1 83 1.3 CALM 0 0 0 0 - - 0.0
14/05:50am 10.9 10.0 7.9 82 1.5 N 2 6 1 3 - - 0.0
14/05:40am 10.9 9.7 7.9 82 1.5 ENE 4 6 2 3 - - 0.0
14/05:30am 10.6 10.1 8.0 84 1.3 CALM 0 0 0 0 - - 0.0
14/05:20am 10.7 10.3 8.2 84 1.2 CALM 0 0 0 0 - - 0.0
14/05:10am 10.9 10.5 8.2 83 1.3 CALM 0 0 0 0 - - 0.0
14/05:00am 11.2 10.4 8.1 81 1.5 E 2 6 1 3 - - 0.0
14/04:50am 11.2 10.8 8.1 81 1.5 CALM 0 4 0 2 - - 0.0
14/04:40am 11.4 11.0 8.2 81 1.6 CALM 0 0 0 0 - - 0.0
14/04:30am 11.5 11.1 8.1 79 1.7 CALM 0 0 0 0 - - 0.0
14/04:20am 11.4 11.0 8.3 81 1.5 CALM 0 0 0 0 - - 0.0
14/04:10am 11.8 11.4 8.3 79 1.7 CALM 0 0 0 0 - - 0.0
14/04:00am 11.8 11.4 8.1 78 1.8 CALM 0 0 0 0 - - 0.0
14/03:50am 11.9 10.8 8.3 78 1.8 E 4 9 2 5 - - 0.0
14/03:40am 11.8 10.6 8.1 78 1.8 ENE 4 7 2 4 - - 0.0
14/03:30am 11.5 11.1 8.3 81 1.6 CALM 0 0 0 0 - - 0.0
14/03:20am 11.7 11.0 8.4 80 1.6 ESE 2 6 1 3 - - 0.0
14/03:10am 11.8 10.1 8.2 78 1.8 E 7 9 4 5 - - 0.0
14/03:00am 11.9 10.8 8.5 80 1.7 ESE 4 6 2 3 - - 0.0
14/02:50am 12.3 11.2 8.3 76 2.0 ENE 4 7 2 4 - - 0.0
14/02:40am 12.4 11.3 8.5 77 1.9 SE 4 6 2 3 - - 0.0
14/02:30am 12.6 11.8 8.2 74 2.2 NNE 2 9 1 5 - - 0.0
14/02:20am 12.8 12.5 8.5 75 2.1 CALM 0 0 0 0 - - 0.0
14/02:10am 13.1 12.7 8.4 73 2.3 CALM 0 0 0 0 - - 0.0
14/02:00am 13.2 12.9 8.5 73 2.3 CALM 0 0 0 0 - - 0.0
14/01:50am 13.4 12.3 8.4 72 2.5 ENE 4 9 2 5 - - 0.0
14/01:40am 13.2 12.1 8.3 72 2.4 ENE 4 6 2 3 - - 0.0
14/01:30am 13.2 11.7 8.5 73 2.3 E 6 7 3 4 - - 0.0
14/01:20am 13.3 12.5 8.3 72 2.5 E 2 7 1 4 - - 0.0
14/01:10am 13.6 12.2 8.8 73 2.4 ESE 6 7 3 4 - - 0.0
14/01:00am 13.9 12.2 8.2 68 2.8 ENE 7 11 4 6 - - 0.0
14/12:50am 13.7 12.6 8.3 70 2.7 ENE 4 7 2 4 - - 0.0
14/12:40am 13.9 13.3 8.8 71 2.6 E 2 6 1 3 - - 0.0
14/12:30am 14.3 12.8 8.4 67 3.0 ENE 6 9 3 5 - - 0.0
14/12:20am 14.1 12.6 8.6 69 2.8 ENE 6 7 3 4 - - 0.0
14/12:10am 13.8 13.1 8.6 71 2.6 ENE 2 6 1 3 - - 0.0
14/12:00am 13.9 13.7 9.0 72 2.5 CALM 0 0 0 0 - - 0.0
 
Date/Time
WST
Temp
°C
App
Temp
°C
Dew
Point
°C
Rel
Hum
%
Delta-T
°C
Wind Press
QNH
hPa
Press
MSL
hPa
Rain since
9am
mm
Dir  Spd
km/h
Gust
km/h
Spd
kts
Gust
kts
13/11:50pm 14.3 14.1 9.0 70 2.7 CALM 0 0 0 0 - - 0.0
13/11:40pm 14.5 13.8 8.7 68 2.9 NE 2 4 1 2 - - 0.0
13/11:30pm 14.5 14.3 9.0 69 2.8 CALM 0 4 0 2 - - 0.0
13/11:20pm 15.0 14.8 9.1 68 3.0 CALM 0 2 0 1 - - 0.0
13/11:10pm 15.4 15.2 8.9 65 3.3 CALM 0 0 0 0 - - 0.0
13/11:00pm 15.6 15.4 8.9 64 3.4 CALM 0 0 0 0 - - 0.0
13/10:50pm 15.7 15.5 8.9 64 3.5 CALM 0 0 0 0 - - 0.0
13/10:40pm 15.8 15.6 9.0 64 3.5 CALM 0 0 0 0 - - 0.0
13/10:30pm 15.8 15.6 9.0 64 3.5 CALM 0 4 0 2 - - 0.0
13/10:20pm 15.8 15.2 8.9 63 3.5 ENE 2 4 1 2 - - 0.0
13/10:10pm 16.2 16.0 9.0 62 3.7 CALM 0 6 0 3 - - 0.0
13/10:00pm 16.4 15.4 8.8 60 3.9 ENE 4 7 2 4 - - 0.0
13/09:50pm 16.3 14.9 8.8 61 3.8 NE 6 6 3 3 - - 0.0
13/09:40pm 16.2 15.9 8.7 61 3.8 CALM 0 2 0 1 - - 0.0
13/09:30pm 16.3 16.1 9.0 62 3.8 CALM 0 0 0 0 - - 0.0
13/09:20pm 16.6 15.7 9.1 61 3.9 ESE 4 9 2 5 - - 0.0
13/09:10pm 16.6 15.0 8.9 60 4.0 NE 7 11 4 6 - - 0.0
13/09:00pm 16.5 15.6 9.3 62 3.7 S 4 7 2 4 - - 0.0
13/08:50pm 16.8 16.6 9.2 61 3.9 CALM 0 2 0 1 - - 0.0
13/08:40pm 17.1 16.9 9.1 59 4.1 CALM 0 0 0 0 - - 0.0
13/08:30pm 17.8 17.2 9.0 56 4.6 E 2 7 1 4 - - 0.0
13/08:20pm 18.1 17.5 9.0 55 4.7 NE 2 6 1 3 - - 0.0
13/08:10pm 18.5 17.5 8.8 53 5.0 ENE 4 6 2 3 - - 0.0
13/08:00pm 18.8 18.1 8.6 51 5.3 NE 2 4 1 2 - - 0.0
13/07:50pm 19.1 18.8 8.8 51 5.4 CALM 0 0 0 0 - - 0.0
13/07:40pm 19.5 19.2 8.7 49 5.6 CALM 0 0 0 0 - - 0.0
13/07:30pm 19.9 19.2 8.5 47 5.9 ENE 2 6 1 3 - - 0.0
13/07:20pm 20.2 19.8 8.3 46 6.2 CALM 0 0 0 0 - - 0.0
13/07:10pm 20.5 20.2 8.5 46 6.3 CALM 0 0 0 0 - - 0.0
13/07:00pm 20.7 20.3 8.4 45 6.4 CALM 0 0 0 0 - - 0.0
13/06:50pm 20.9 20.6 8.5 45 6.5 CALM 0 0 0 0 - - 0.0
13/06:40pm 21.5 20.0 8.6 43 6.8 E 6 11 3 6 - - 0.0
13/06:30pm 22.0 20.5 8.4 41 7.2 ENE 6 9 3 5 - - 0.0
13/06:20pm 22.6 21.5 8.6 40 7.4 ENE 4 6 2 3 - - 0.0
13/06:10pm 23.3 22.9 8.4 38 7.9 CALM 0 0 0 0 - - 0.0
13/06:00pm 24.3 23.5 8.1 35 8.6 ESE 2 4 1 2 - - 0.0
13/05:50pm 25.3 24.8 7.7 32 9.3 CALM 0 4 0 2 - - 0.0
13/05:40pm 26.6 25.2 7.4 29 10.2 E 4 7 2 4 - - 0.0
13/05:30pm 27.9 27.3 7.3 27 11.0 CALM 0 4 0 2 - - 0.0
13/05:20pm 29.1 28.4 7.0 25 11.8 CALM 0 0 0 0 - - 0.0
13/05:10pm 30.2 29.1 6.7 23 12.6 ESE 2 6 1 3 - - 0.0
13/05:00pm 30.8 29.2 6.4 21 13.1 ESE 4 6 2 3 - - 0.0
13/04:50pm 31.2 29.2 6.1 20 13.4 ESE 6 11 3 6 - - 0.0
13/04:40pm 31.5 28.8 5.6 19 13.7 ESE 9 15 5 8 - - 0.0
13/04:30pm 31.6 28.0 5.1 19 13.9 ENE 13 19 7 10 - - 0.0
13/04:20pm 31.7 28.1 5.1 18 14.0 ENE 13 19 7 10 - - 0.0
13/04:10pm 32.1 29.0 5.4 18 14.2 E 11 19 6 10 - - 0.0
13/04:00pm 32.2 29.0 5.1 18 14.3 E 11 22 6 12 - - 0.0
13/03:50pm 32.3 29.1 4.9 18 14.4 NE 11 13 6 7 - - 0.0
13/03:40pm 32.2 29.0 4.9 18 14.4 SE 11 19 6 10 - - 0.0
13/03:30pm 32.1 28.1 5.1 18 14.2 NE 15 19 8 10 - - 0.0
13/03:20pm 32.9 30.0 4.8 17 14.8 SE 9 13 5 7 - - 0.0
13/03:10pm 32.6 29.0 4.8 17 14.6 S 13 19 7 10 - - 0.0
13/03:00pm 32.5 27.7 4.6 17 14.6 ENE 19 30 10 16 - - 0.0
13/02:50pm 32.8 29.2 5.0 17 14.7 E 13 32 7 17 - - 0.0
13/02:40pm 32.4 28.0 4.6 17 14.6 NE 17 26 9 14 - - 0.0
13/02:30pm 32.3 26.6 5.0 18 14.4 NE 24 28 13 15 - - 0.0
13/02:20pm 32.4 27.7 5.1 18 14.4 NE 19 28 10 15 - - 0.0
13/02:10pm 32.5 27.7 4.5 17 14.7 ENE 19 28 10 15 - - 0.0
13/02:00pm 32.3 26.7 5.4 18 14.3 NE 24 33 13 18 - - 0.0
13/01:50pm 32.2 26.5 5.0 18 14.3 NE 24 32 13 17 - - 0.0
13/01:40pm 32.1 27.2 5.2 18 14.2 NE 20 30 11 16 - - 0.0
13/01:30pm 32.2 27.4 5.6 19 14.2 NE 20 26 11 14 - - 0.0
13/01:20pm 32.1 27.0 6.0 19 14.0 NE 22 30 12 16 - - 0.0
13/01:10pm 32.3 28.4 5.5 18 14.2 E 15 22 8 12 - - 0.0
13/01:00pm 32.2 27.6 5.5 18 14.2 E 19 24 10 13 - - 0.0
13/12:50pm 32.2 27.4 5.8 19 14.1 ENE 20 32 11 17 - - 0.0
13/12:40pm 31.7 27.2 5.9 20 13.8 E 19 22 10 12 - - 0.0
13/12:30pm 32.0 27.4 5.7 19 14.0 ESE 19 24 10 13 - - 0.0
13/12:20pm 31.6 27.8 5.8 20 13.7 ENE 15 26 8 14 - - 0.0
13/12:10pm 31.4 26.6 5.8 20 13.6 E 20 28 11 15 - - 0.0
13/12:00pm 31.6 27.8 5.8 20 13.7 ENE 15 24 8 13 - - 0.0
13/11:50am 30.8 25.3 5.7 20 13.3 NE 24 32 13 17 - - 0.0
13/11:40am 30.7 24.4 5.6 20 13.2 NE 28 33 15 18 - - 0.0
13/11:30am 30.8 25.6 5.7 20 13.3 E 22 33 12 18 - - 0.0
13/11:20am 30.4 25.2 5.7 21 13.0 ENE 22 32 12 17 - - 0.0
13/11:10am 30.5 25.0 5.8 21 13.1 ENE 24 33 13 18 - - 0.0
13/11:00am 30.1 25.0 5.9 21 12.8 ENE 22 26 12 14 - - 0.0
13/10:50am 29.8 23.5 5.5 21 12.7 ENE 28 39 15 21 - - 0.0
13/10:40am 29.6 23.6 5.5 21 12.6 ENE 26 35 14 19 - - 0.0
13/10:30am 29.3 23.4 5.8 22 12.3 ENE 26 35 14 19 - - 0.0
13/10:20am 29.4 24.9 6.1 23 12.3 E 19 24 10 13 - - 0.0
13/10:10am 29.1 24.0 5.8 23 12.2 E 22 28 12 15 - - 0.0
13/10:00am 28.9 23.4 6.0 23 12.0 ENE 24 35 13 19 - - 0.0
13/09:50am 28.7 23.9 5.8 23 12.0 E 20 32 11 17 - - 0.0
13/09:40am 28.0 22.9 6.0 24 11.5 E 22 26 12 14 - - 0.0
13/09:30am 27.7 21.1 6.0 25 11.3 ENE 30 33 16 18 - - 0.0

Other formats

Comma delimited format used in spreadsheet applications
http://www.bom.gov.au/fwo/IDW60801/IDW60801.99460.axf

JavaScript Object Notation format (JSON) in row-major order
http://www.bom.gov.au/fwo/IDW60801/IDW60801.99460.json

Data quality

Most of these data are generated automatically and are frequently updated. Quality checks on data are not normally performed. It is possible for incorrect values to appear. Refer to information at About Latest Weather Observations and please check the disclaimer before using these data.